createdAt,value
2018-04-18T00:02:01.816Z,5.47
2018-04-18T00:04:30.509Z,4.20
2018-04-18T00:06:58.729Z,3.93
2018-04-18T00:09:27.624Z,5.03
2018-04-18T00:11:55.828Z,5.07
2018-04-18T00:14:24.807Z,4.90
2018-04-18T00:16:53.701Z,4.90
2018-04-18T00:19:22.228Z,4.93
2018-04-18T00:21:50.912Z,5.80
2018-04-18T00:24:19.109Z,5.10
2018-04-18T00:26:48.111Z,4.60
2018-04-18T00:29:16.734Z,5.20
2018-04-18T00:31:44.936Z,5.10
2018-04-18T00:34:13.138Z,5.20
2018-04-18T00:36:42.117Z,4.60
2018-04-18T00:39:11.090Z,4.27
2018-04-18T00:41:39.601Z,3.80
2018-04-18T00:44:08.572Z,5.33
2018-04-18T00:46:37.164Z,4.70
2018-04-18T00:49:05.364Z,5.47
2018-04-18T00:51:34.002Z,4.53
2018-04-18T00:54:02.212Z,5.13
2018-04-18T00:59:05.338Z,4.60
2018-04-18T01:01:33.954Z,4.83
2018-04-18T01:04:02.717Z,4.40
2018-04-18T01:06:30.923Z,4.60
2018-04-18T01:08:59.361Z,4.60
2018-04-18T01:11:28.344Z,4.70
2018-04-18T01:13:57.321Z,4.50
2018-04-18T01:16:25.811Z,4.47
2018-04-18T01:18:54.009Z,4.77
2018-04-18T01:21:24.061Z,4.80
2018-04-18T01:23:52.290Z,4.60
2018-04-18T01:26:20.797Z,4.97
2018-04-18T01:28:48.997Z,5.00
2018-04-18T01:31:17.199Z,5.27
2018-04-18T01:33:45.423Z,4.77
2018-04-18T01:36:13.630Z,4.77
2018-04-18T01:38:41.849Z,5.20
2018-04-18T01:41:10.870Z,4.90
2018-04-18T01:43:40.578Z,4.83
2018-04-18T01:46:09.554Z,4.70
2018-04-18T01:48:38.528Z,5.20
2018-04-18T01:51:06.748Z,5.30
2018-04-18T01:53:35.005Z,5.10
2018-04-18T01:56:03.968Z,5.20
2018-04-18T01:58:32.827Z,4.60
2018-04-18T02:01:01.473Z,4.53
2018-04-18T02:03:30.896Z,5.30
2018-04-18T02:05:59.094Z,4.70
2018-04-18T02:08:27.601Z,5.00
2018-04-18T02:10:55.808Z,5.17
2018-04-18T02:13:24.777Z,4.43
2018-04-18T02:15:53.180Z,5.10
2018-04-18T02:18:21.797Z,5.20
2018-04-18T02:20:50.006Z,5.10
2018-04-18T02:23:18.500Z,5.63
2018-04-18T02:25:47.108Z,4.90
2018-04-18T02:28:17.048Z,4.70
2018-04-18T02:30:45.242Z,4.67
2018-04-18T02:33:13.456Z,4.60
2018-04-18T02:35:41.665Z,5.40
2018-04-18T02:38:09.873Z,5.00
2018-04-18T02:43:12.682Z,5.07
2018-04-18T02:45:40.979Z,5.80
2018-04-18T02:48:09.162Z,5.13
2018-04-18T02:50:37.389Z,5.80
2018-04-18T02:53:05.607Z,5.80
2018-04-18T02:55:34.643Z,4.03
2018-04-18T02:58:04.019Z,5.27
2018-04-18T03:00:32.596Z,5.00
2018-04-18T03:03:07.624Z,5.10
2018-04-18T03:05:35.841Z,4.80
2018-04-18T03:08:04.189Z,4.97
2018-04-18T03:10:32.393Z,4.93
2018-04-18T03:13:01.365Z,6.10
2018-04-18T03:15:29.641Z,6.50
2018-04-18T03:17:57.796Z,5.70
2018-04-18T03:20:26.013Z,5.10
2018-04-18T03:22:55.821Z,4.53
2018-04-18T03:25:24.889Z,6.00
2018-04-18T03:27:53.854Z,4.77
2018-04-18T03:30:22.064Z,4.90
2018-04-18T03:32:50.283Z,5.10
2018-04-18T03:35:18.500Z,4.93
2018-04-18T03:37:46.999Z,5.70
2018-04-18T03:40:15.719Z,5.33
2018-04-18T03:42:44.992Z,5.30
2018-04-18T03:45:13.898Z,5.00
2018-04-18T03:47:42.893Z,5.13
2018-04-18T03:50:11.101Z,5.60
2018-04-18T03:52:39.394Z,5.63
2018-04-18T03:55:08.249Z,5.20
2018-04-18T03:57:36.457Z,5.50
2018-04-18T04:00:04.758Z,5.77
2018-04-18T04:02:33.262Z,5.67
2018-04-18T05:29:10.220Z,6.03
2018-04-18T05:31:40.041Z,5.60
2018-04-18T05:34:08.243Z,5.53
2018-04-18T05:36:37.725Z,6.27
2018-04-18T05:39:05.949Z,6.00
2018-04-18T05:41:34.680Z,5.40
2018-04-18T05:44:03.420Z,5.40
2018-04-18T05:46:31.632Z,6.13
2018-04-18T05:48:59.920Z,6.03
2018-04-18T05:51:28.139Z,7.20
2018-04-18T05:53:56.345Z,6.13
2018-04-18T05:56:25.397Z,6.40
2018-04-18T05:58:59.388Z,6.00
2018-04-18T06:01:27.686Z,6.23
2018-04-18T06:03:57.120Z,7.03
2018-04-18T06:06:25.328Z,6.73
2018-04-18T06:08:53.844Z,6.80
2018-04-18T06:11:22.080Z,6.20
2018-04-18T06:13:50.288Z,7.17
2018-04-18T06:16:19.293Z,7.57
2018-04-18T06:18:48.254Z,7.17
2018-04-18T06:21:17.130Z,6.90
2018-04-18T06:23:45.989Z,7.40
2018-04-18T06:26:14.265Z,6.80
2018-04-18T06:28:42.467Z,8.20
2018-04-18T06:31:10.667Z,8.17
2018-04-18T06:33:39.119Z,8.33
2018-04-18T06:36:08.070Z,9.17
2018-04-18T06:38:37.029Z,8.47
2018-04-18T06:41:05.521Z,9.07
2018-04-18T06:43:34.014Z,8.37
2018-04-18T06:46:02.372Z,8.90
2018-04-18T06:48:30.584Z,8.10
2018-04-18T06:50:59.556Z,7.80
2018-04-18T06:53:27.807Z,8.87
2018-04-18T06:55:56.433Z,7.63
2018-04-18T06:58:25.403Z,8.73
2018-04-18T07:00:54.087Z,8.53
2018-04-18T07:03:22.960Z,8.23
2018-04-18T07:05:52.719Z,6.97
2018-04-18T07:08:21.211Z,8.43
2018-04-18T07:10:49.413Z,8.20
2018-04-18T07:13:17.621Z,9.07
2018-04-18T07:15:45.840Z,8.73
2018-04-18T07:18:14.277Z,9.87
2018-04-18T07:20:42.789Z,8.70
2018-04-18T07:23:11.543Z,9.27
2018-04-18T07:25:40.191Z,8.50
2018-04-18T07:28:08.391Z,8.23
2018-04-18T07:30:39.800Z,7.77
2018-04-18T07:33:08.004Z,9.27
2018-04-18T07:35:36.217Z,7.57
2018-04-18T07:38:04.456Z,8.57
2018-04-18T07:40:32.710Z,8.23
2018-04-18T07:43:01.288Z,9.20
2018-04-18T07:45:30.253Z,7.50
2018-04-18T07:47:58.467Z,9.10
2018-04-18T07:50:26.947Z,9.87
2018-04-18T07:52:55.152Z,9.60
2018-04-18T07:55:23.498Z,7.93
2018-04-18T07:57:52.486Z,7.93
2018-04-18T08:00:22.089Z,8.27
2018-04-18T08:02:51.473Z,8.57
2018-04-18T08:05:20.070Z,7.40
2018-04-18T08:07:48.280Z,7.83
2018-04-18T08:10:16.610Z,9.33
2018-04-18T08:12:44.818Z,9.27
2018-04-18T08:15:13.323Z,8.00
2018-04-18T08:17:42.280Z,8.63
2018-04-18T08:20:11.268Z,8.40
2018-04-18T08:22:40.749Z,7.60
2018-04-18T08:25:10.078Z,6.63
2018-04-18T08:27:38.290Z,6.77
2018-04-18T08:30:07.174Z,6.90
2018-04-18T08:32:35.406Z,6.97
2018-04-18T08:35:03.608Z,7.90
2018-04-18T08:37:31.827Z,6.70
2018-04-18T08:40:00.267Z,6.87
2018-04-18T08:42:29.752Z,7.63
2018-04-18T08:44:58.453Z,7.13
2018-04-18T08:47:26.666Z,6.53
2018-04-18T08:49:54.907Z,5.57
2018-04-18T08:52:23.892Z,5.70
2018-04-18T08:54:52.096Z,5.60
2018-04-18T08:57:20.999Z,5.43
2018-04-18T08:59:49.670Z,6.13
2018-04-18T09:02:18.332Z,5.33
2018-04-18T09:04:47.750Z,6.30
2018-04-18T09:07:16.326Z,5.77
2018-04-18T09:09:45.362Z,4.90
2018-04-18T09:12:13.567Z,5.10
2018-04-18T09:14:41.777Z,5.23
2018-04-18T09:17:10.852Z,4.40
2018-04-18T09:19:39.580Z,3.93
2018-04-18T09:22:12.760Z,3.83
2018-04-18T09:24:47.189Z,4.50
2018-04-18T09:27:15.865Z,4.30
2018-04-18T09:29:44.840Z,3.90
2018-04-18T09:32:13.935Z,4.27
2018-04-18T09:34:42.928Z,3.60
2018-04-18T09:37:11.136Z,3.83
2018-04-18T09:39:40.019Z,4.07
2018-04-18T09:42:08.696Z,3.97
2018-04-18T09:44:37.674Z,3.53
2018-04-18T09:47:05.878Z,3.67
2018-04-18T09:49:34.093Z,3.33
2018-04-18T09:52:02.300Z,3.47
2018-04-18T09:54:30.520Z,3.50
2018-04-18T09:56:58.956Z,4.30
2018-04-18T09:59:28.535Z,3.53
2018-04-18T10:01:56.946Z,3.20
2018-04-18T10:04:29.037Z,3.93
2018-04-18T10:06:57.241Z,3.60
2018-04-18T10:09:25.532Z,3.77
2018-04-18T10:11:53.731Z,3.13
2018-04-18T10:14:21.949Z,3.83
2018-04-18T10:16:50.186Z,3.60
2018-04-18T10:19:18.398Z,3.43
2018-04-18T10:21:47.676Z,3.53
2018-04-18T10:24:19.997Z,3.13
2018-04-18T10:26:48.525Z,3.83
2018-04-18T10:29:17.030Z,3.60
2018-04-18T10:31:46.009Z,3.40
2018-04-18T10:34:14.216Z,3.00
2018-04-18T10:36:42.859Z,3.20
2018-04-18T10:39:11.065Z,2.90
2018-04-18T10:41:39.650Z,3.07
2018-04-18T10:44:07.866Z,2.87
2018-04-18T10:46:36.078Z,3.40
2018-04-18T10:49:04.309Z,3.23
2018-04-18T10:51:32.515Z,2.70
2018-04-18T10:54:00.981Z,2.73
2018-04-18T10:56:30.539Z,3.30
2018-04-18T10:59:05.048Z,3.10
2018-04-18T11:01:34.030Z,3.60
2018-04-18T11:04:02.288Z,3.10
2018-04-18T11:06:30.506Z,3.13
2018-04-18T11:08:58.967Z,3.23
2018-04-18T11:11:27.354Z,3.27
2018-04-18T11:13:55.553Z,3.00
2018-04-18T11:16:24.573Z,3.00
2018-04-18T11:18:52.771Z,2.97
2018-04-18T11:21:21.808Z,2.77
2018-04-18T11:23:51.737Z,3.50
2018-04-18T11:26:21.040Z,3.00
2018-04-18T11:28:50.195Z,3.00
2018-04-18T11:31:18.388Z,3.23
2018-04-18T11:33:46.890Z,2.80
2018-04-18T11:36:15.860Z,2.93
2018-04-18T11:38:44.060Z,2.50
2018-04-18T11:41:13.545Z,2.63
2018-04-18T11:43:41.744Z,3.03
2018-04-18T11:46:09.936Z,2.27
2018-04-18T11:48:38.158Z,2.97
2018-04-18T11:51:06.357Z,2.70
2018-04-18T11:53:35.333Z,2.90
2018-04-18T11:56:03.740Z,2.97
2018-04-18T11:58:31.939Z,2.60
2018-04-18T12:01:01.309Z,2.63
2018-04-18T12:03:30.196Z,3.20
2018-04-18T12:05:58.389Z,2.80
2018-04-18T12:08:28.509Z,2.73
2018-04-18T12:10:57.478Z,2.83
2018-04-18T12:13:25.672Z,2.60
2018-04-18T12:15:54.978Z,2.70
2018-04-18T12:18:23.930Z,2.80
2018-04-18T12:20:52.321Z,2.53
2018-04-18T12:23:20.681Z,2.40
2018-04-18T12:25:49.599Z,2.37
2018-04-18T12:28:18.601Z,2.60
2018-04-18T12:30:47.284Z,2.53
2018-04-18T12:33:15.511Z,2.30
2018-04-18T12:35:43.723Z,2.30
2018-04-18T12:38:11.961Z,2.80
2018-04-18T12:40:40.152Z,2.60
2018-04-18T12:43:08.676Z,3.00
2018-04-18T12:45:36.868Z,3.03
2018-04-18T12:48:05.066Z,2.30
2018-04-18T12:50:33.892Z,2.20
2018-04-18T12:53:02.088Z,2.63
2018-04-18T12:55:30.552Z,2.90
2018-04-18T12:57:58.746Z,3.03
2018-04-18T13:00:27.000Z,2.50
2018-04-18T13:02:55.428Z,2.50
2018-04-18T13:05:23.992Z,2.40
2018-04-18T13:07:59.025Z,2.40
2018-04-18T13:10:28.268Z,2.60
2018-04-18T13:12:56.476Z,2.83
2018-04-18T13:15:24.689Z,2.67
2018-04-18T13:17:53.664Z,2.67
2018-04-18T13:20:22.245Z,2.40
2018-04-18T13:22:51.123Z,2.67
2018-04-18T13:25:19.453Z,2.90
2018-04-18T13:27:50.352Z,2.30
2018-04-18T13:30:18.559Z,2.67
2018-04-18T13:32:46.755Z,2.60
2018-04-18T13:35:14.970Z,2.40
2018-04-18T13:37:43.184Z,2.78
2018-04-18T13:40:11.376Z,2.50
2018-04-18T13:42:40.036Z,2.45
2018-04-18T13:45:09.546Z,2.90
2018-04-18T13:47:38.503Z,2.85
2018-04-18T13:50:06.705Z,2.72
2018-04-18T13:52:35.683Z,2.55
2018-04-18T13:55:05.535Z,2.57
2018-04-18T13:57:33.737Z,2.50
2018-04-18T14:00:02.824Z,2.42
2018-04-18T14:02:31.347Z,2.78
2018-04-18T14:05:00.243Z,2.80
2018-04-18T14:07:28.440Z,2.60
2018-04-18T14:09:57.820Z,2.60
2018-04-18T14:12:26.028Z,3.00
2018-04-18T14:14:54.224Z,2.90
2018-04-18T14:17:23.700Z,2.77
2018-04-18T14:19:52.662Z,3.20
2018-04-18T14:22:21.056Z,3.13
2018-04-18T14:24:49.645Z,2.80
2018-04-18T14:27:18.732Z,3.03
2018-04-18T14:29:47.200Z,2.83
2018-04-18T14:32:15.396Z,3.60
2018-04-18T14:34:43.605Z,3.30
2018-04-18T14:37:11.803Z,3.27
2018-04-18T14:39:40.004Z,3.20
2018-04-18T14:42:08.780Z,3.40
2018-04-18T14:44:36.982Z,2.57
2018-04-18T14:47:05.173Z,3.10
2018-04-18T14:49:33.400Z,2.90
2018-04-18T14:52:01.595Z,2.77
2018-04-18T14:54:29.841Z,3.77
2018-04-18T14:56:58.572Z,2.90
2018-04-18T14:59:27.243Z,3.23
2018-04-18T15:01:55.724Z,2.87
2018-04-18T15:04:24.633Z,2.80
2018-04-18T15:06:52.832Z,3.03
2018-04-18T15:09:21.516Z,3.00
2018-04-18T15:11:49.722Z,3.03
2018-04-18T15:14:18.265Z,2.83
2018-04-18T15:16:46.456Z,2.83
2018-04-18T15:19:15.435Z,4.37
2018-04-18T15:21:45.256Z,3.20
2018-04-18T15:24:14.659Z,2.83
2018-04-18T15:26:43.212Z,3.40
2018-04-18T15:29:11.421Z,3.70
2018-04-18T15:31:39.648Z,2.90
2018-04-18T15:34:08.252Z,3.27
2018-04-18T15:36:36.799Z,2.80
2018-04-18T15:39:04.997Z,2.90
2018-04-18T15:41:34.352Z,3.27
2018-04-18T15:44:06.469Z,3.40
2018-04-18T15:46:35.069Z,4.07
2018-04-18T15:49:03.271Z,3.73
2018-04-18T15:51:32.236Z,3.10
2018-04-18T15:54:00.445Z,2.70
2018-04-18T15:56:30.115Z,3.07
2018-04-18T15:59:00.030Z,3.07
2018-04-18T16:01:29.095Z,3.27
2018-04-18T16:04:01.043Z,2.97
2018-04-18T16:06:29.250Z,3.30
2018-04-18T16:08:57.695Z,3.33
2018-04-18T16:11:26.662Z,4.00
2018-04-18T16:13:55.167Z,3.30
2018-04-18T16:16:24.142Z,3.90
2018-04-18T16:18:52.339Z,3.93
2018-04-18T16:21:30.155Z,3.70
2018-04-18T16:23:58.761Z,3.97
2018-04-18T16:26:27.064Z,3.30
2018-04-18T16:28:55.269Z,3.57
2018-04-18T16:31:24.184Z,3.80
2018-04-18T16:33:52.396Z,3.13
2018-04-18T16:36:20.595Z,4.20
2018-04-18T16:38:49.566Z,3.60
2018-04-18T16:41:17.917Z,3.73
2018-04-18T16:43:47.579Z,3.43
2018-04-18T16:46:16.584Z,4.17
2018-04-18T16:48:45.543Z,3.77
2018-04-18T16:51:13.743Z,3.67
2018-04-18T16:53:41.960Z,4.03
2018-04-18T16:56:10.805Z,3.80
2018-04-18T16:58:39.009Z,4.30
2018-04-18T17:01:07.784Z,4.00
2018-04-18T17:03:37.275Z,3.70
2018-04-18T17:06:05.860Z,4.20
2018-04-18T17:08:34.669Z,3.50
2018-04-18T17:11:03.788Z,3.80
2018-04-18T17:13:33.268Z,4.50
2018-04-18T17:16:02.227Z,3.83
2018-04-18T17:18:31.053Z,4.00
2018-04-18T17:21:00.040Z,4.20
2018-04-18T17:23:29.452Z,4.30
2018-04-18T17:25:58.665Z,3.47
2018-04-18T17:28:26.975Z,4.37
2018-04-18T17:30:55.187Z,4.10
2018-04-18T17:33:23.390Z,3.47
2018-04-18T17:35:52.360Z,4.43
2018-04-18T17:38:20.561Z,4.00
2018-04-18T17:40:48.768Z,4.33
2018-04-18T17:43:17.613Z,4.53
2018-04-18T17:45:46.587Z,3.93
2018-04-18T17:48:14.775Z,4.23
2018-04-18T17:50:43.773Z,4.03
2018-04-18T17:53:12.748Z,4.70
2018-04-18T17:55:41.230Z,4.17
2018-04-18T17:58:09.448Z,4.73
2018-04-18T18:00:37.988Z,4.43
2018-04-18T18:03:11.292Z,4.83
2018-04-18T18:05:39.494Z,6.67
2018-04-18T18:08:08.092Z,6.77
2018-04-18T18:10:36.284Z,5.20
2018-04-18T18:13:04.485Z,4.70
2018-04-18T18:15:32.700Z,5.10
2018-04-18T18:18:02.113Z,3.83
2018-04-18T18:20:31.073Z,5.37
2018-04-18T18:22:59.444Z,4.77
2018-04-18T18:25:28.102Z,5.13
2018-04-18T18:27:56.505Z,4.73
2018-04-18T18:30:24.692Z,4.80
2018-04-18T18:32:53.195Z,4.70
2018-04-18T18:35:22.168Z,5.67
2018-04-18T18:37:51.357Z,5.53
2018-04-18T18:40:19.585Z,5.70
2018-04-18T18:42:52.221Z,5.50
2018-04-18T18:45:20.716Z,5.73
2018-04-18T18:47:48.904Z,7.33
2018-04-18T18:50:17.875Z,6.00
2018-04-18T18:52:46.087Z,6.13
2018-04-18T18:55:14.628Z,5.03
2018-04-18T18:57:42.827Z,6.10
2018-04-18T19:00:12.008Z,5.43
2018-04-18T19:02:40.978Z,5.77
2018-04-18T19:05:09.592Z,7.23
2018-04-18T19:07:37.895Z,5.70
2018-04-18T19:10:06.157Z,5.00
2018-04-18T19:12:35.459Z,5.80
2018-04-18T19:15:04.715Z,5.60
2018-04-18T19:17:33.728Z,5.37
2018-04-18T19:20:01.960Z,5.60
2018-04-18T19:22:30.257Z,6.57
2018-04-18T19:24:59.603Z,5.60
2018-04-18T19:27:28.579Z,6.53
2018-04-18T19:29:56.775Z,5.97
2018-04-18T19:32:25.765Z,5.53
2018-04-18T19:34:55.380Z,5.93
2018-04-18T19:37:24.391Z,5.77
2018-04-18T19:39:52.607Z,6.00
2018-04-18T19:42:21.216Z,7.63
2018-04-18T19:44:49.423Z,5.97
2018-04-18T19:47:17.623Z,5.93
2018-04-18T19:49:46.282Z,6.87
2018-04-18T19:52:20.087Z,5.97
2018-04-18T19:54:50.472Z,5.50
2018-04-18T19:57:21.202Z,5.77
2018-04-18T19:59:49.904Z,6.37
2018-04-18T20:02:18.604Z,6.10
2018-04-18T20:04:47.236Z,6.30
2018-04-18T20:07:15.502Z,6.13
2018-04-18T20:09:44.212Z,5.23
2018-04-18T20:12:13.864Z,7.43
2018-04-18T20:14:42.150Z,5.77
2018-04-18T20:17:11.451Z,5.80
2018-04-18T20:19:40.931Z,7.70
2018-04-18T20:22:14.638Z,5.43
2018-04-18T20:24:49.031Z,6.53
2018-04-18T20:27:17.432Z,5.70
2018-04-18T20:29:45.630Z,5.70
2018-04-18T20:32:14.635Z,6.73
2018-04-18T20:34:45.492Z,6.33
2018-04-18T20:37:14.411Z,7.00
2018-04-18T20:39:43.112Z,9.80
2018-04-18T20:42:12.299Z,12.27
2018-04-18T20:44:40.530Z,7.30
2018-04-18T20:47:09.503Z,5.50
2018-04-18T20:49:37.722Z,5.27
2018-04-18T20:52:05.947Z,5.93
2018-04-18T20:54:34.194Z,5.87
2018-04-18T20:57:02.983Z,7.53
2018-04-18T20:59:31.599Z,6.63
2018-04-18T21:01:59.796Z,6.83
2018-04-18T21:04:28.356Z,6.30
2018-04-18T21:06:56.551Z,5.73
2018-04-18T21:09:25.053Z,5.23
2018-04-18T21:11:53.244Z,4.73
2018-04-18T21:14:22.487Z,5.17
2018-04-18T21:16:50.700Z,5.07
2018-04-18T21:19:18.903Z,5.37
2018-04-18T21:21:47.790Z,4.83
2018-04-18T21:24:16.476Z,4.93
2018-04-18T21:26:44.908Z,5.07
2018-04-18T21:29:13.135Z,4.80
2018-04-18T21:31:41.356Z,5.67
2018-04-18T21:34:10.167Z,7.33
2018-04-18T21:36:39.145Z,6.10
2018-04-18T21:39:07.347Z,6.63
2018-04-18T21:41:36.544Z,5.43
2018-04-18T21:44:04.757Z,5.50
2018-04-18T21:46:32.956Z,6.10
2018-04-18T21:49:01.176Z,6.33
2018-04-18T21:51:29.371Z,4.70
2018-04-18T21:53:57.579Z,5.37
2018-04-18T21:56:26.000Z,5.60
2018-04-18T21:58:59.664Z,5.30
2018-04-18T22:01:27.862Z,5.50
2018-04-18T22:03:56.132Z,6.10
2018-04-18T22:06:24.645Z,6.37
2018-04-18T22:08:52.896Z,6.70
2018-04-18T22:11:21.087Z,6.27
2018-04-18T22:13:49.288Z,6.13
2018-04-18T22:16:17.776Z,5.80
2018-04-18T22:18:45.959Z,5.83
2018-04-18T22:21:15.183Z,6.20
2018-04-18T22:23:44.195Z,5.80
2018-04-18T22:26:13.097Z,6.07
2018-04-18T22:28:41.741Z,5.50
2018-04-18T22:31:09.938Z,4.87
2018-04-18T22:33:38.148Z,6.10
2018-04-18T22:36:06.348Z,5.13
2018-04-18T22:38:34.557Z,4.80
2018-04-18T22:41:02.763Z,6.00
2018-04-18T22:43:32.157Z,5.53
2018-04-18T22:46:00.335Z,5.07
2018-04-18T22:48:28.540Z,5.93
2018-04-18T22:50:56.921Z,5.10
2018-04-18T22:53:25.139Z,4.90
2018-04-18T22:55:53.492Z,6.30
2018-04-18T22:58:22.348Z,5.40
2018-04-18T23:00:51.823Z,6.30
2018-04-18T23:03:20.761Z,5.63
2018-04-18T23:05:49.323Z,5.47
2018-04-18T23:08:17.691Z,5.83
2018-04-18T23:10:45.898Z,7.07
2018-04-18T23:13:15.004Z,6.23
2018-04-18T23:15:43.221Z,5.30
2018-04-18T23:18:11.407Z,5.80
2018-04-18T23:20:39.615Z,6.30
2018-04-18T23:23:08.398Z,5.60
2018-04-18T23:25:37.464Z,5.70
2018-04-18T23:28:05.656Z,5.80
2018-04-18T23:30:33.865Z,6.20
2018-04-18T23:33:02.332Z,6.33
2018-04-18T23:35:31.368Z,6.23
2018-04-18T23:37:59.567Z,6.20
2018-04-18T23:40:28.184Z,5.80
2018-04-18T23:42:57.616Z,6.20
2018-04-18T23:45:25.823Z,5.60
2018-04-18T23:47:54.012Z,5.87
2018-04-18T23:50:22.264Z,6.90
2018-04-18T23:52:50.465Z,6.27
2018-04-18T23:55:19.253Z,5.77
2018-04-18T23:57:47.453Z,6.13
